Time;durP1;ratioP1;P1;durP2;ratioP2;P2;SDS_P1;SDS_P2;PMS_P1;PMS_P2;Temp;Humidity;BMP_temperature;BMP_pressure;BME280_temperature;BME280_humidity;BME280_pressure;Samples;Min_cycle;Max_cycle;Signal;HPM_P1;HPM_P2
2023/03/30 00:01:16;;;;;;;;;3.50;3.50;;;;;18.31;50.74;100554.53;6249373;22;47161;-66
2023/03/30 00:03:44;;;;;;;;;4.50;3.00;;;;;18.40;50.49;100558.44;6249385;22;45271;-66
2023/03/30 00:06:11;;;;;;;;;5.75;4.25;;;;;18.39;50.85;100554.00;6276886;22;45225;-66
2023/03/30 00:08:37;;;;;;;;;3.25;3.25;;;;;18.37;51.02;100539.72;6248351;22;45526;-66
2023/03/30 00:11:12;;;;;;;;;5.00;3.75;;;;;18.31;51.43;100524.81;6276735;22;45512;-66
2023/03/30 00:13:38;;;;;;;;;5.00;3.00;;;;;18.38;51.26;100543.31;6276680;22;45294;-66
2023/03/30 00:16:06;;;;;;;;;4.50;4.00;;;;;18.33;52.10;100519.31;6277433;22;45411;-66
2023/03/30 00:18:33;;;;;;;;;4.75;4.75;;;;;18.11;51.92;100461.34;6275717;22;45422;-66
2023/03/30 00:21:01;;;;;;;;;3.00;1.75;;;;;18.23;52.37;100519.06;6249047;22;45988;-66
2023/03/30 00:23:27;;;;;;;;;4.75;4.75;;;;;18.25;52.37;100513.56;6276871;22;45712;-66
2023/03/30 00:25:52;;;;;;;;;6.25;4.50;;;;;18.26;52.26;100528.78;6277096;22;45292;-66
2023/03/30 00:28:17;;;;;;;;;3.75;2.75;;;;;18.02;52.63;100477.28;6248434;22;46912;-66
2023/03/30 00:30:43;;;;;;;;;4.00;4.00;;;;;18.21;52.52;100493.09;6248930;22;46130;-66
2023/03/30 00:33:08;;;;;;;;;4.25;4.00;;;;;18.13;52.50;100486.41;6277130;22;45329;-66
2023/03/30 00:35:34;;;;;;;;;4.50;4.50;;;;;18.13;52.61;100494.50;6275264;22;45295;-66
2023/03/30 00:38:02;;;;;;;;;5.75;4.50;;;;;18.11;52.42;100499.16;6276315;22;45312;-66
2023/03/30 00:40:30;;;;;;;;;6.00;4.50;;;;;18.09;52.61;100500.22;6249470;22;48018;-66
2023/03/30 00:43:05;;;;;;;;;4.25;3.25;;;;;18.12;52.33;100508.97;6278353;22;45489;-66
2023/03/30 00:45:35;;;;;;;;;4.00;4.00;;;;;18.11;52.39;100506.41;6278076;22;45387;-66
2023/03/30 00:48:00;;;;;;;;;2.75;2.75;;;;;18.09;51.80;100505.63;6249411;22;45391;-66
2023/03/30 00:50:33;;;;;;;;;2.50;2.50;;;;;18.03;51.77;100479.03;6276908;22;45334;-66
2023/03/30 00:53:05;;;;;;;;;5.25;3.75;;;;;18.05;52.07;100494.16;6249221;22;45558;-66
2023/03/30 00:55:33;;;;;;;;;5.00;5.00;;;;;18.03;52.21;100496.09;6250326;22;45283;-66
2023/03/30 00:58:00;;;;;;;;;7.75;4.50;;;;;18.00;52.60;100507.09;6277247;22;45410;-66
2023/03/30 01:00:25;;;;;;;;;5.00;4.00;;;;;17.96;52.48;100484.00;6278260;22;45799;-66
2023/03/30 01:02:59;;;;;;;;;4.00;4.00;;;;;17.98;53.13;100502.78;6250429;22;45457;-66
2023/03/30 01:05:27;;;;;;;;;4.50;4.25;;;;;17.87;52.86;100476.50;6250454;22;45416;-66
2023/03/30 01:07:53;;;;;;;;;4.50;4.50;;;;;17.95;53.06;100490.34;6249098;22;45339;-66
2023/03/30 01:10:19;;;;;;;;;5.75;5.75;;;;;17.93;53.42;100495.00;6249946;22;46223;-66
2023/03/30 01:12:45;;;;;;;;;4.00;4.00;;;;;17.87;53.74;100490.00;6277340;22;45257;-66
2023/03/30 01:15:10;;;;;;;;;3.75;2.75;;;;;17.85;54.00;100500.00;6276026;22;45569;-66
2023/03/30 01:17:42;;;;;;;;;4.50;4.00;;;;;17.83;54.13;100510.06;6277318;22;45450;-66
2023/03/30 01:20:40;;;;;;;;;4.75;4.75;;;;;17.83;53.52;100507.34;6249587;22;46605;-66
2023/03/30 01:23:09;;;;;;;;;4.50;3.50;;;;;17.78;53.77;100497.72;6277868;22;45212;-66
2023/03/30 01:26:02;;;;;;;;;4.75;3.00;;;;;17.67;53.85;100481.34;6278204;22;45433;-66
2023/03/30 01:28:33;;;;;;;;;3.50;3.50;;;;;17.75;53.67;100486.25;6249344;22;45738;-66
2023/03/30 01:31:11;;;;;;;;;4.25;4.25;;;;;17.73;53.92;100472.84;6277996;22;46039;-66
2023/03/30 01:33:45;;;;;;;;;1.50;1.50;;;;;17.69;53.81;100474.03;6277916;22;45203;-66
2023/03/30 01:36:17;;;;;;;;;1.75;1.75;;;;;17.70;53.66;100491.94;6277684;22;45261;-66
2023/03/30 01:39:07;;;;;;;;;2.25;2.25;;;;;17.66;54.00;100517.44;6277856;22;45193;-66
2023/03/30 01:41:37;;;;;;;;;3.50;2.25;;;;;17.57;54.06;100516.19;6277296;22;46044;-66
2023/03/30 01:44:16;;;;;;;;;3.25;3.00;;;;;17.59;53.89;100516.06;6277455;22;45270;-66
2023/03/30 01:46:49;;;;;;;;;2.75;2.00;;;;;17.56;53.99;100514.47;6250905;22;45650;-66
2023/03/30 01:49:20;;;;;;;;;0.50;0.50;;;;;17.62;54.34;100523.97;6276202;22;45261;-66
2023/03/30 01:52:11;;;;;;;;;2.75;2.75;;;;;17.51;53.73;100494.16;6277362;22;46237;-66
2023/03/30 01:54:46;;;;;;;;;1.50;1.50;;;;;17.51;54.31;100502.25;6277805;22;45789;-66
2023/03/30 01:57:17;;;;;;;;;2.25;2.25;;;;;17.43;53.58;100486.53;6277089;22;45487;-66
2023/03/30 01:59:53;;;;;;;;;2.75;1.50;;;;;17.45;53.94;100492.69;6250043;22;45205;-66
2023/03/30 02:02:21;;;;;;;;;1.75;1.75;;;;;17.53;54.20;100519.19;6277716;22;45453;-66
2023/03/30 02:04:48;;;;;;;;;2.00;2.00;;;;;17.40;54.00;100490.28;6249585;22;45656;-66
2023/03/30 02:07:21;;;;;;;;;3.25;2.25;;;;;17.47;53.94;100471.88;6277598;22;45414;-66
2023/03/30 02:09:50;;;;;;;;;2.00;1.00;;;;;17.48;53.52;100484.41;6277387;22;45575;-66
2023/03/30 02:12:18;;;;;;;;;2.00;2.00;;;;;17.21;53.83;100454.72;6249743;22;46952;-66
2023/03/30 02:14:48;;;;;;;;;1.75;1.75;;;;;17.34;53.70;100488.00;6248641;22;45496;-66
2023/03/30 02:17:17;;;;;;;;;4.25;3.00;;;;;17.36;53.60;100507.66;6277554;22;45323;-66
2023/03/30 02:19:47;;;;;;;;;2.00;2.00;;;;;17.32;53.91;100505.25;6249683;22;45545;-66
2023/03/30 02:22:14;;;;;;;;;2.75;2.00;;;;;17.29;53.71;100517.13;6249742;22;48212;-66
2023/03/30 02:24:42;;;;;;;;;3.00;3.00;;;;;17.33;53.74;100531.28;6277309;22;45455;-66
2023/03/30 02:27:08;;;;;;;;;2.00;2.00;;;;;17.28;53.45;100525.31;6277286;22;45413;-66
2023/03/30 02:29:39;;;;;;;;;2.25;2.25;;;;;17.21;53.89;100509.50;6277993;22;45328;-66
2023/03/30 02:32:04;;;;;;;;;2.00;2.00;;;;;17.30;53.85;100516.13;6277942;22;46263;-66
2023/03/30 02:35:14;;;;;;;;;2.00;2.00;;;;;17.19;53.67;100513.25;6277752;22;45590;-66
2023/03/30 02:37:52;;;;;;;;;2.00;2.00;;;;;17.32;53.53;100559.19;6240851;22;45360;-66
2023/03/30 02:40:36;;;;;;;;;1.50;1.00;;;;;17.32;54.29;100564.59;6277011;22;45451;-66
2023/03/30 02:43:10;;;;;;;;;1.25;1.25;;;;;17.28;54.10;100574.72;6249556;22;46917;-66
2023/03/30 02:45:52;;;;;;;;;3.50;2.00;;;;;17.21;53.82;100560.75;6277897;22;45260;-66
2023/03/30 02:48:41;;;;;;;;;2.00;1.50;;;;;17.17;54.20;100567.31;6249301;22;45419;-66
2023/03/30 02:51:28;;;;;;;;;2.50;2.50;;;;;17.24;54.13;100578.59;6249172;22;45718;-66
2023/03/30 02:54:17;;;;;;;;;2.00;2.00;;;;;17.20;54.05;100577.03;6277185;22;45310;-66
2023/03/30 02:56:42;;;;;;;;;1.75;0.25;;;;;17.18;54.24;100560.09;6277204;22;45256;-66
2023/03/30 02:59:13;;;;;;;;;1.33;1.33;;;;;17.04;54.20;100539.38;6277253;22;45233;-66
2023/03/30 03:01:49;;;;;;;;;2.00;1.25;;;;;16.96;54.20;100539.84;6249643;22;45330;-66
2023/03/30 03:04:16;;;;;;;;;1.00;1.00;;;;;16.88;54.16;100547.56;6276485;22;46827;-66
2023/03/30 03:06:42;;;;;;;;;3.00;2.00;;;;;17.04;54.23;100583.38;6277299;22;45313;-66
2023/03/30 03:09:08;;;;;;;;;1.50;1.50;;;;;17.07;54.64;100578.75;6276595;22;45259;-66
2023/03/30 03:11:34;;;;;;;;;1.50;1.50;;;;;17.08;54.57;100558.94;6249187;22;45515;-66
2023/03/30 03:14:00;;;;;;;;;1.00;1.00;;;;;17.04;54.50;100550.19;6277075;22;45932;-66
2023/03/30 03:16:25;;;;;;;;;1.00;1.00;;;;;17.04;54.42;100560.97;6275628;22;45287;-66
2023/03/30 03:18:51;;;;;;;;;2.00;2.00;;;;;16.92;54.87;100541.00;6276933;22;45520;-66
2023/03/30 03:21:17;;;;;;;;;3.50;1.75;;;;;16.99;54.56;100547.75;6249491;22;45509;-66
2023/03/30 03:23:42;;;;;;;;;1.00;1.00;;;;;16.75;55.04;100524.97;6277308;22;46609;-66
2023/03/30 03:26:08;;;;;;;;;2.00;1.00;;;;;16.80;54.97;100528.25;6277147;22;45409;-66
2023/03/30 03:28:34;;;;;;;;;1.50;0.50;;;;;16.71;54.75;100509.97;6276968;22;45505;-66
2023/03/30 03:31:01;;;;;;;;;3.00;2.00;;;;;16.75;54.91;100542.00;6277534;22;45253;-66
2023/03/30 03:33:27;;;;;;;;;1.00;1.00;;;;;16.74;54.93;100550.19;6249679;22;48026;-66
2023/03/30 03:35:54;;;;;;;;;0.75;0.75;;;;;16.82;55.00;100570.34;6276955;22;45412;-66
2023/03/30 03:38:23;;;;;;;;;2.00;2.00;;;;;16.67;55.23;100547.88;6249253;22;45339;-66
2023/03/30 03:40:53;;;;;;;;;1.00;1.00;;;;;16.74;55.26;100544.78;6276689;22;45323;-66
2023/03/30 03:43:20;;;;;;;;;2.00;0.75;;;;;16.82;54.96;100550.56;6275989;22;46155;-66
2023/03/30 03:45:47;;;;;;;;;1.75;1.75;;;;;16.71;55.50;100545.00;6277446;22;45198;-66
2023/03/30 03:48:13;;;;;;;;;2.00;2.00;;;;;16.78;55.28;100576.84;6276537;22;45420;-66
2023/03/30 03:50:39;;;;;;;;;1.00;1.00;;;;;16.64;55.38;100558.84;6277348;22;45505;-66
2023/03/30 03:53:04;;;;;;;;;1.00;1.00;;;;;16.57;55.55;100551.22;6277295;22;46195;-66
2023/03/30 03:55:33;;;;;;;;;0.00;0.00;;;;;16.71;55.76;100558.47;6277096;22;45295;-66
2023/03/30 03:57:59;;;;;;;;;1.00;1.00;;;;;16.52;55.60;100538.00;6248618;22;45260;-66
2023/03/30 04:00:25;;;;;;;;;2.50;1.00;;;;;16.44;55.70;100529.56;6277473;22;45201;-66
2023/03/30 04:02:51;;;;;;;;;3.00;1.00;;;;;16.57;55.58;100557.50;6249379;22;47638;-66
2023/03/30 04:05:16;;;;;;;;;1.25;1.00;;;;;16.50;55.79;100550.72;6277309;22;45208;-66
2023/03/30 04:07:45;;;;;;;;;1.25;1.00;;;;;16.63;55.54;100577.81;6276147;22;45212;-66
2023/03/30 04:10:11;;;;;;;;;1.00;0.75;;;;;16.53;55.62;100560.47;6276760;22;45433;-66
2023/03/30 04:12:37;;;;;;;;;2.00;1.00;;;;;16.74;55.86;100598.69;6276437;22;45331;-66
2023/03/30 04:15:04;;;;;;;;;0.00;0.00;;;;;16.52;55.80;100559.56;6278262;22;45465;-66
2023/03/30 04:17:32;;;;;;;;;1.00;1.00;;;;;16.62;56.10;100570.66;6278334;22;45439;-66
2023/03/30 04:20:03;;;;;;;;;3.00;1.00;;;;;16.40;55.98;100538.75;6277725;22;45259;-66
2023/03/30 04:22:34;;;;;;;;;3.00;1.00;;;;;16.37;56.09;100547.03;6250402;22;47620;-66
2023/03/30 04:25:00;;;;;;;;;2.25;1.25;;;;;16.26;56.35;100524.28;6277849;22;45421;-66
2023/03/30 04:27:27;;;;;;;;;2.00;2.00;;;;;16.40;56.30;100550.41;6278223;22;45327;-66
2023/03/30 04:29:56;;;;;;;;;2.00;2.00;;;;;16.53;56.49;100579.31;6277947;22;45380;-66
2023/03/30 04:32:22;;;;;;;;;2.00;0.75;;;;;16.24;56.46;100538.81;6278182;22;45512;-66
2023/03/30 04:34:48;;;;;;;;;3.75;3.25;;;;;16.21;56.64;100531.78;6278286;22;45417;-66
2023/03/30 04:37:17;;;;;;;;;1.00;1.00;;;;;16.25;56.76;100557.56;6250237;22;45315;-66
2023/03/30 04:39:43;;;;;;;;;1.75;1.00;;;;;16.16;56.83;100533.88;6277424;22;45430;-66
2023/03/30 04:42:12;;;;;;;;;1.00;1.00;;;;;16.13;56.82;100530.50;6277642;22;45354;-66
2023/03/30 04:44:41;;;;;;;;;1.00;1.00;;;;;16.10;56.80;100523.47;6278224;22;45547;-66
2023/03/30 04:47:06;;;;;;;;;2.00;1.00;;;;;16.08;56.92;100528.06;6277150;22;45327;-66
2023/03/30 04:49:32;;;;;;;;;1.50;1.00;;;;;16.11;57.25;100539.53;6277752;22;45258;-66
2023/03/30 04:51:57;;;;;;;;;1.00;1.00;;;;;16.30;57.21;100581.53;6278384;22;45266;-66
2023/03/30 04:54:23;;;;;;;;;1.00;1.00;;;;;16.04;57.28;100546.25;6275967;22;45460;-66
2023/03/30 04:56:48;;;;;;;;;3.00;2.00;;;;;16.19;57.48;100584.88;6277665;22;45272;-66
2023/03/30 04:59:14;;;;;;;;;2.00;1.00;;;;;16.26;56.97;100590.78;6278304;22;45180;-66
2023/03/30 05:01:39;;;;;;;;;1.00;1.00;;;;;16.11;57.28;100565.59;6278230;22;45228;-66
2023/03/30 05:04:06;;;;;;;;;1.50;1.00;;;;;16.07;57.27;100572.09;6250243;22;45379;-66
2023/03/30 05:06:31;;;;;;;;;2.00;2.00;;;;;16.03;57.09;100576.81;6277676;22;45362;-66
2023/03/30 05:08:57;;;;;;;;;0.75;0.75;;;;;16.19;57.30;100606.41;6277908;22;45675;-66
2023/03/30 05:11:22;;;;;;;;;1.00;1.00;;;;;15.93;57.76;100573.78;6276904;22;45457;-66
2023/03/30 05:13:50;;;;;;;;;1.00;1.00;;;;;16.11;57.72;100608.69;6277930;22;45401;-66
2023/03/30 05:16:16;;;;;;;;;1.00;1.00;;;;;15.80;57.87;100561.09;6277992;22;45401;-66
2023/03/30 05:18:42;;;;;;;;;2.25;1.00;;;;;15.96;57.96;100596.09;6277522;22;45488;-66
2023/03/30 05:21:08;;;;;;;;;1.00;1.00;;;;;15.92;58.12;100598.06;6277940;22;45421;-66
2023/03/30 05:23:33;;;;;;;;;2.00;2.00;;;;;16.04;58.02;100628.84;6278098;22;45370;-66
2023/03/30 05:25:58;;;;;;;;;1.75;1.75;;;;;16.02;58.08;100636.13;6250096;22;45225;-66
2023/03/30 05:28:23;;;;;;;;;2.00;1.25;;;;;15.86;58.27;100603.84;6277347;22;45261;-66
2023/03/30 05:30:53;;;;;;;;;1.50;1.00;;;;;15.83;58.41;100615.63;6277729;22;46273;-66
2023/03/30 05:33:20;;;;;;;;;2.75;2.00;;;;;15.89;58.15;100652.13;6277824;22;45392;-66
2023/03/30 05:35:45;;;;;;;;;2.50;1.25;;;;;15.74;58.26;100627.75;6278354;22;45295;-66
2023/03/30 05:38:11;;;;;;;;;2.75;1.25;;;;;15.87;58.48;100657.59;6277124;22;45673;-66
2023/03/30 05:40:36;;;;;;;;;1.00;1.00;;;;;15.68;58.50;100617.31;6249938;22;46542;-66
2023/03/30 05:43:02;;;;;;;;;2.00;2.00;;;;;15.52;58.59;100606.56;6250258;22;45953;-66
2023/03/30 05:45:27;;;;;;;;;2.00;1.50;;;;;15.66;58.61;100626.44;6249049;22;45434;-66
2023/03/30 05:47:53;;;;;;;;;1.75;1.25;;;;;15.89;58.92;100663.75;6277223;22;45491;-66
2023/03/30 05:50:19;;;;;;;;;1.00;1.00;;;;;15.65;58.20;100633.66;6276826;22;45333;-66
2023/03/30 05:53:44;;;;;;;;;;;;;;;;;;;;;
2023/03/30 05:59:22;;;;;;;;;;;;;;;;;;;;;
2023/03/30 06:02:19;;;;;;;;;0.00;0.00;;;;;15.42;58.94;100616.09;6273577;22;74551;-71
2023/03/30 06:35:57;;;;;;;;;3.00;1.00;;;;;15.52;60.54;100692.66;6211355;22;45591;-66
2023/03/30 06:38:42;;;;;;;;;3.25;1.00;;;;;15.30;60.29;100668.72;6211750;22;45327;-65
2023/03/30 06:41:10;;;;;;;;;1.75;1.75;;;;;15.62;60.10;100719.03;6211734;22;45427;-66
2023/03/30 06:43:36;;;;;;;;;2.00;2.00;;;;;15.25;60.44;100653.75;6213285;22;45482;-66
2023/03/30 06:46:06;;;;;;;;;2.00;1.00;;;;;15.49;60.27;100694.63;6246661;22;45982;-69
2023/03/30 06:48:31;;;;;;;;;5.75;3.00;;;;;15.60;60.36;100720.94;6238494;22;45968;-66
2023/03/30 06:50:58;;;;;;;;;2.00;2.00;;;;;15.64;60.54;100733.31;6246371;22;45490;-65
2023/03/30 06:53:23;;;;;;;;;4.00;2.00;;;;;15.45;60.65;100715.44;6246779;22;45206;-66
2023/03/30 06:55:55;;;;;;;;;4.75;3.50;;;;;15.33;60.50;100702.63;6244277;22;47385;-66
2023/03/30 06:58:22;;;;;;;;;3.00;1.75;;;;;15.51;60.65;100739.31;6245502;22;45487;-65
2023/03/30 07:00:48;;;;;;;;;1.00;1.00;;;;;15.26;60.89;100699.41;6246699;22;45201;-65
2023/03/30 07:03:17;;;;;;;;;1.00;1.00;;;;;15.41;60.90;100729.13;6244942;22;45538;-66
2023/03/30 07:05:45;;;;;;;;;5.75;1.75;;;;;15.44;60.84;100728.97;6244345;22;45383;-66
2023/03/30 07:08:11;;;;;;;;;5.50;1.00;;;;;15.36;60.79;100718.63;6244331;22;45515;-67
2023/03/30 07:10:36;;;;;;;;;3.00;2.00;;;;;15.45;60.83;100736.97;6242442;22;45514;-66
2023/03/30 07:13:01;;;;;;;;;2.00;2.00;;;;;15.38;60.76;100728.34;6245076;22;45272;-66
2023/03/30 07:15:27;;;;;;;;;3.50;2.00;;;;;15.47;60.95;100745.81;6245377;22;45320;-64
2023/03/30 07:17:52;;;;;;;;;5.50;2.50;;;;;15.69;60.67;100783.22;6239950;22;45284;-65
2023/03/30 07:20:19;;;;;;;;;1.00;1.00;;;;;15.40;60.58;100730.94;6244727;22;45360;-65
2023/03/30 07:22:44;;;;;;;;;2.00;2.00;;;;;15.70;60.52;100774.19;6244996;22;45418;-65
2023/03/30 07:25:10;;;;;;;;;6.75;4.50;;;;;15.49;60.66;100749.28;6235144;22;46956;-65
2023/03/30 07:27:36;;;;;;;;;2.00;1.00;;;;;15.50;60.75;100742.09;6242503;22;45645;-66
2023/03/30 07:30:04;;;;;;;;;1.00;1.00;;;;;15.55;60.76;100758.84;6243543;22;45633;-65
2023/03/30 07:32:30;;;;;;;;;2.00;0.50;;;;;15.47;60.71;100742.25;6216151;22;45522;-65
2023/03/30 07:34:56;;;;;;;;;2.00;1.00;;;;;15.61;60.50;100761.22;6243964;22;45367;-65
2023/03/30 07:37:22;;;;;;;;;3.50;2.00;;;;;15.64;60.39;100762.91;6244780;22;45281;-65
2023/03/30 07:39:48;;;;;;;;;3.25;3.00;;;;;15.74;60.50;100782.97;6242737;22;45598;-66
2023/03/30 07:42:13;;;;;;;;;2.25;2.25;;;;;15.64;60.55;100763.75;6244569;22;45748;-65
2023/03/30 07:44:39;;;;;;;;;6.00;1.75;;;;;15.62;60.49;100759.41;6244145;22;45298;-66
2023/03/30 07:47:05;;;;;;;;;3.00;2.00;;;;;15.66;60.46;100761.00;6242490;22;45320;-65
2023/03/30 07:49:31;;;;;;;;;2.00;1.00;;;;;15.70;60.54;100760.75;6244386;22;45571;-65
2023/03/30 07:51:56;;;;;;;;;2.00;2.00;;;;;15.87;60.26;100810.13;6243821;22;45365;-65
2023/03/30 07:54:22;;;;;;;;;4.50;3.00;;;;;15.85;60.24;100785.97;6243649;22;46052;-65
2023/03/30 07:56:51;;;;;;;;;1.00;1.00;;;;;15.87;59.96;100802.03;6243751;22;45316;-65
2023/03/30 07:59:22;;;;;;;;;2.00;1.00;;;;;15.83;59.93;100789.72;6243188;22;45341;-65
2023/03/30 08:01:53;;;;;;;;;2.00;2.00;;;;;15.77;59.59;100769.41;6243369;22;45526;-65
2023/03/30 08:04:19;;;;;;;;;3.00;2.00;;;;;15.83;59.34;100787.03;6242522;22;45289;-65
2023/03/30 08:06:45;;;;;;;;;4.75;2.50;;;;;16.02;59.26;100829.97;6242886;22;45353;-65
2023/03/30 08:09:11;;;;;;;;;3.00;2.00;;;;;15.98;59.36;100806.88;6244122;22;45321;-65
2023/03/30 08:11:36;;;;;;;;;3.75;3.50;;;;;15.99;59.35;100812.16;6216010;22;45332;-66
2023/03/30 08:14:03;;;;;;;;;3.00;2.00;;;;;16.00;59.26;100811.19;6243440;22;46614;-66
2023/03/30 08:16:29;;;;;;;;;1.00;1.00;;;;;15.99;59.10;100805.91;6243803;22;45543;-66
2023/03/30 08:18:55;;;;;;;;;2.75;2.25;;;;;15.97;59.02;100806.00;6242397;22;45359;-65
2023/03/30 08:21:22;;;;;;;;;2.25;2.00;;;;;15.95;58.89;100807.03;6242114;22;45348;-66
2023/03/30 08:23:47;;;;;;;;;4.75;3.75;;;;;15.95;58.88;100815.09;6243071;22;45999;-66
2023/03/30 08:26:13;;;;;;;;;2.00;2.00;;;;;16.14;58.98;100842.78;6242597;22;45488;-66
2023/03/30 08:28:38;;;;;;;;;4.00;2.00;;;;;15.98;59.18;100818.50;6242818;22;45288;-65
2023/03/30 08:31:05;;;;;;;;;3.00;2.00;;;;;16.17;59.20;100844.44;6241129;22;45418;-66
2023/03/30 08:33:31;;;;;;;;;1.00;1.00;;;;;16.12;59.37;100839.28;6215665;22;47288;-66
2023/03/30 08:35:56;;;;;;;;;3.50;2.75;;;;;16.16;59.43;100838.19;6242203;22;45344;-66
2023/03/30 08:38:21;;;;;;;;;2.75;2.75;;;;;16.19;59.40;100847.91;6241961;22;45322;-65
2023/03/30 08:40:48;;;;;;;;;6.50;2.00;;;;;16.07;59.02;100819.81;6242886;22;45732;-65
2023/03/30 08:43:26;;;;;;;;;4.50;1.50;;;;;16.23;59.25;100844.09;6243691;22;45350;-66
2023/03/30 08:45:51;;;;;;;;;4.50;2.00;;;;;16.22;59.63;100843.25;6215110;22;45706;-66
2023/03/30 08:48:23;;;;;;;;;2.00;2.00;;;;;16.12;59.17;100825.81;6243551;22;45403;-66
2023/03/30 08:51:09;;;;;;;;;6.25;3.75;;;;;16.37;59.54;100862.19;6236495;22;45351;-66
2023/03/30 08:53:36;;;;;;;;;2.75;1.00;;;;;16.32;59.11;100861.59;6240542;22;46620;-66
2023/03/30 08:56:15;;;;;;;;;3.00;1.00;;;;;16.38;59.34;100861.25;6242829;22;45595;-66
2023/03/30 08:58:47;;;;;;;;;4.50;1.00;;;;;16.42;58.97;100866.41;6243145;22;45316;-66
2023/03/30 09:01:30;;;;;;;;;2.00;1.00;;;;;16.32;58.68;100854.34;6242472;22;45430;-65
2023/03/30 09:04:06;;;;;;;;;2.00;2.00;;;;;16.45;59.04;100868.91;6215177;22;46495;-66
2023/03/30 09:06:56;;;;;;;;;4.00;3.00;;;;;16.48;59.13;100875.97;6243115;22;45912;-65
2023/03/30 09:09:26;;;;;;;;;3.25;2.75;;;;;16.43;58.93;100862.72;6245467;22;45285;-66
2023/03/30 09:12:07;;;;;;;;;3.25;2.25;;;;;16.48;58.75;100884.91;6245325;22;45308;-66
2023/03/30 09:14:48;;;;;;;;;6.00;3.00;;;;;16.45;59.00;100882.38;6217196;22;47089;-65
2023/03/30 09:17:20;;;;;;;;;1.75;1.00;;;;;16.49;58.84;100878.56;6245192;22;45608;-65
2023/03/30 09:20:25;;;;;;;;;2.25;2.00;;;;;16.55;58.67;100890.81;6244929;22;45366;-66
2023/03/30 09:22:52;;;;;;;;;1.50;1.50;;;;;16.39;58.68;100858.47;6170069;22;45450;-66
2023/03/30 09:25:39;;;;;;;;;3.00;2.00;;;;;16.51;58.71;100874.94;6246331;22;45515;-66
2023/03/30 09:28:21;;;;;;;;;5.50;2.00;;;;;16.55;58.98;100882.75;6245327;22;45484;-66
2023/03/30 09:31:01;;;;;;;;;3.75;2.00;;;;;16.57;59.15;100891.63;6237163;22;45725;-65
2023/03/30 09:33:54;;;;;;;;;4.75;3.25;;;;;16.61;59.07;100898.59;6216801;22;45592;-66
2023/03/30 09:36:19;;;;;;;;;2.75;2.75;;;;;16.61;59.38;100895.88;6244740;22;45994;-65
2023/03/30 09:38:45;;;;;;;;;2.50;2.50;;;;;16.51;59.60;100869.53;6217331;22;45599;-65
2023/03/30 09:41:32;;;;;;;;;1.00;1.00;;;;;16.37;59.49;100855.00;6216246;22;45566;-66
2023/03/30 09:44:00;;;;;;;;;3.25;1.00;;;;;16.61;59.63;100893.19;6242993;22;45356;-65
2023/03/30 09:46:26;;;;;;;;;2.00;2.00;;;;;16.56;59.31;100892.56;6244222;22;45626;-66
2023/03/30 09:48:51;;;;;;;;;3.00;2.00;;;;;16.62;59.09;100896.75;6245080;22;45403;-66
2023/03/30 09:51:19;;;;;;;;;2.00;1.00;;;;;16.63;59.01;100893.97;6214249;22;49428;-65
2023/03/30 09:53:47;;;;;;;;;5.00;4.00;;;;;16.49;58.69;100878.56;6244206;22;45449;-65
2023/03/30 09:56:17;;;;;;;;;2.75;2.75;;;;;16.67;58.56;100909.03;6243138;22;45391;-66
2023/03/30 09:58:42;;;;;;;;;5.75;3.00;;;;;16.69;58.56;100903.56;6244724;22;45564;-65
2023/03/30 10:01:11;;;;;;;;;5.50;2.25;;;;;16.58;58.56;100881.72;6214169;22;45476;-62
2023/03/30 10:03:38;;;;;;;;;3.25;2.75;;;;;16.63;58.64;100893.09;6243010;22;46068;-65
2023/03/30 10:06:17;;;;;;;;;6.50;2.00;;;;;16.71;58.30;100903.47;6240057;22;47910;-65
2023/03/30 10:08:54;;;;;;;;;5.00;3.00;;;;;16.47;58.46;100885.88;6244041;22;45481;-65
2023/03/30 10:11:31;;;;;;;;;3.00;2.00;;;;;16.65;58.13;100896.59;6242849;22;45473;-65
2023/03/30 10:13:57;;;;;;;;;4.00;2.00;;;;;16.71;57.93;100900.78;6244082;22;45246;-65
2023/03/30 10:16:25;;;;;;;;;2.00;2.00;;;;;16.75;57.94;100899.63;6244099;22;46565;-65
2023/03/30 10:18:58;;;;;;;;;1.25;1.00;;;;;16.73;57.64;100906.94;6243602;22;45593;-66
2023/03/30 10:21:29;;;;;;;;;4.50;2.75;;;;;16.72;57.99;100906.06;6216668;22;45404;-66
2023/03/30 10:24:07;;;;;;;;;3.50;3.00;;;;;16.72;57.45;100902.50;6243897;22;45280;-66
2023/03/30 10:26:36;;;;;;;;;6.50;1.25;;;;;16.59;57.59;100870.84;6242264;22;46064;-65
2023/03/30 10:29:06;;;;;;;;;3.25;3.00;;;;;16.78;57.30;100903.03;6243350;22;45393;-66
2023/03/30 10:31:37;;;;;;;;;5.50;2.00;;;;;16.83;57.30;100910.88;6243283;22;45599;-66
2023/03/30 10:34:05;;;;;;;;;6.50;2.75;;;;;16.72;57.67;100870.16;6216838;22;45844;-66
2023/03/30 10:36:37;;;;;;;;;4.75;2.25;;;;;16.82;57.23;100887.53;6243841;22;46027;-65
2023/03/30 10:39:13;;;;;;;;;7.75;3.25;;;;;16.90;57.56;100903.34;6245170;22;45418;-65
2023/03/30 10:41:40;;;;;;;;;4.00;3.75;;;;;16.92;57.42;100909.50;6218514;22;45312;-66
2023/03/30 10:44:22;;;;;;;;;5.00;3.75;;;;;16.90;57.51;100906.91;6245920;22;45418;-66
2023/03/30 10:46:51;;;;;;;;;5.25;3.25;;;;;16.61;57.89;100843.81;6218071;22;46690;-66
2023/03/30 10:49:30;;;;;;;;;1.25;1.25;;;;;16.77;57.90;100862.69;6218782;22;46227;-66
2023/03/30 10:52:12;;;;;;;;;6.25;3.00;;;;;16.96;57.49;100900.31;6218295;22;45681;-66
2023/03/30 10:54:51;;;;;;;;;2.25;1.00;;;;;16.99;57.13;100884.81;6244507;22;45382;-66
2023/03/30 10:57:19;;;;;;;;;4.00;1.25;;;;;17.00;56.69;100867.66;6244651;22;46023;-66
2023/03/30 11:00:17;;;;;;;;;5.25;3.25;;;;;17.10;56.30;100881.50;6218530;22;45776;-66
2023/03/30 11:02:53;;;;;;;;;3.50;3.25;;;;;17.13;55.66;100877.75;6246294;22;45416;-66
2023/03/30 11:05:24;;;;;;;;;4.00;3.50;;;;;17.05;56.13;100862.00;6246243;22;45359;-66
2023/03/30 11:08:00;;;;;;;;;4.00;3.00;;;;;17.14;55.94;100866.88;6217950;22;47268;-66
2023/03/30 11:10:37;;;;;;;;;7.00;3.00;;;;;17.16;55.52;100878.44;6245822;22;45252;-65
2023/03/30 11:13:22;;;;;;;;;5.00;3.50;;;;;17.02;55.79;100857.69;6246372;22;45298;-66
2023/03/30 11:16:01;;;;;;;;;5.00;4.25;;;;;17.10;54.98;100857.22;6245719;22;45390;-65
2023/03/30 11:18:35;;;;;;;;;2.25;1.75;;;;;17.30;54.79;100880.34;6218820;22;47942;-66
2023/03/30 11:21:07;;;;;;;;;4.50;2.00;;;;;17.25;54.16;100877.03;6218780;22;45864;-67
2023/03/30 11:23:32;;;;;;;;;3.00;3.00;;;;;17.33;53.44;100890.94;6245876;22;45335;-66
2023/03/30 11:26:07;;;;;;;;;5.50;4.25;;;;;17.32;53.23;100873.00;6246321;22;45272;-66
2023/03/30 11:28:46;;;;;;;;;4.00;1.50;;;;;17.40;53.87;100876.13;6245584;22;47116;-66
2023/03/30 11:31:28;;;;;;;;;2.75;2.25;;;;;17.38;53.60;100867.28;6246176;22;45342;-67
2023/03/30 11:33:59;;;;;;;;;3.75;1.00;;;;;17.49;53.66;100866.66;6244964;22;45364;-66
2023/03/30 11:36:44;;;;;;;;;2.25;2.00;;;;;17.54;52.99;100869.06;6246726;22;45258;-66
2023/03/30 11:39:15;;;;;;;;;1.50;0.50;;;;;17.47;53.00;100863.16;6245941;22;45299;-66
2023/03/30 11:42:07;;;;;;;;;6.50;3.50;;;;;17.36;52.70;100828.72;6219102;22;45417;-66
2023/03/30 11:44:33;;;;;;;;;0.50;0.50;;;;;17.47;52.88;100854.19;6230164;22;46658;-66
2023/03/30 11:47:08;;;;;;;;;1.75;1.25;;;;;17.57;52.14;100890.47;6244638;22;45567;-67
2023/03/30 11:50:11;;;;;;;;;3.75;2.00;;;;;17.54;52.86;100885.25;6218412;22;47213;-67
2023/03/30 11:53:15;;;;;;;;;1.50;1.00;;;;;17.54;52.93;100888.84;6246783;22;45246;-67
2023/03/30 11:55:55;;;;;;;;;4.25;0.75;;;;;17.52;53.04;100882.63;6199226;22;45269;-69
2023/03/30 11:58:28;;;;;;;;;3.00;2.00;;;;;17.34;53.34;100852.22;6243408;22;45480;-67
2023/03/30 12:01:07;;;;;;;;;4.50;3.00;;;;;17.53;53.08;100907.81;6217798;22;47693;-66
2023/03/30 12:03:50;;;;;;;;;5.00;1.00;;;;;17.42;56.28;100892.22;6243717;22;45437;-66
2023/03/30 12:06:33;;;;;;;;;2.25;2.00;;;;;17.36;56.56;100890.78;6245225;22;45331;-67
2023/03/30 12:09:24;;;;;;;;;3.50;2.75;;;;;17.40;56.78;100886.94;6246215;22;45245;-66
2023/03/30 12:11:53;;;;;;;;;1.50;1.50;;;;;17.38;57.82;100880.75;6245801;22;45480;-67
2023/03/30 12:14:39;;;;;;;;;5.50;2.25;;;;;17.38;58.02;100872.66;6244237;22;45574;-67
2023/03/30 12:17:17;;;;;;;;;2.25;1.00;;;;;17.35;57.94;100864.75;6217862;22;45339;-66
2023/03/30 12:19:51;;;;;;;;;1.00;0.00;;;;;17.41;57.93;100871.63;6244819;22;45289;-66